Time;durP1;ratioP1;P1;durP2;ratioP2;P2;SDS_P1;SDS_P2;PMS_P1;PMS_P2;Temp;Humidity;BMP_temperature;BMP_pressure;BME280_temperature;BME280_humidity;BME280_pressure;Samples;Min_cycle;Max_cycle;Signal;HPM_P1;HPM_P2
2022/04/22 07:38:03;;;;;;;20.23;14.48;;;10.70;99.90;;;;;;5103341;27;20648;-66
2022/04/22 07:40:29;;;;;;;20.52;14.75;;;10.90;99.90;;;;;;5070678;28;20245;-67
2022/04/22 07:48:26;;;;;;;16.63;13.25;;;11.10;99.90;;;;;;5070614;28;20537;-67
2022/04/22 07:50:54;;;;;;;16.98;12.27;;;11.30;99.90;;;;;;5070538;28;20165;-67
2022/04/22 07:53:20;;;;;;;17.05;13.00;;;11.30;99.90;;;;;;5070392;28;20629;-67
2022/04/22 07:55:46;;;;;;;21.25;12.95;;;11.40;99.90;;;;;;5070375;28;20259;-67
2022/04/22 07:58:14;;;;;;;13.57;11.85;;;11.50;99.90;;;;;;5070367;28;20299;-67
2022/04/22 08:00:41;;;;;;;14.55;12.50;;;11.60;99.90;;;;;;5070264;28;20161;-67
2022/04/22 08:03:07;;;;;;;18.75;12.60;;;11.60;99.90;;;;;;5070265;28;20546;-67
2022/04/22 08:05:34;;;;;;;16.08;11.10;;;11.70;99.90;;;;;;5070223;28;20160;-67
2022/04/22 08:07:59;;;;;;;16.05;11.60;;;11.70;99.90;;;;;;5070047;28;20171;-67
2022/04/22 08:10:25;;;;;;;12.77;10.77;;;11.70;99.90;;;;;;5070089;28;20164;-67
2022/04/22 08:12:50;;;;;;;13.40;10.88;;;11.60;99.90;;;;;;5070076;28;20197;-67
2022/04/22 08:15:18;;;;;;;16.00;11.48;;;11.60;99.90;;;;;;5069985;28;20689;-67
2022/04/22 08:17:44;;;;;;;12.60;11.30;;;11.80;99.90;;;;;;5069910;28;20249;-67
2022/04/22 08:20:11;;;;;;;12.52;11.18;;;11.80;99.90;;;;;;5069837;28;20176;-67
2022/04/22 08:22:37;;;;;;;11.05;9.75;;;11.80;99.90;;;;;;5069748;28;20709;-67
2022/04/22 08:25:03;;;;;;;11.10;9.90;;;11.90;99.90;;;;;;5069707;28;20226;-67
2022/04/22 08:27:29;;;;;;;12.15;9.50;;;11.90;99.90;;;;;;5068499;28;20574;-67
2022/04/22 08:29:55;;;;;;;11.10;8.40;;;12.10;99.90;;;;;;5068399;28;20168;-67
2022/04/22 08:32:21;;;;;;;12.10;10.75;;;12.20;99.90;;;;;;5069660;28;20509;-67
2022/04/22 08:34:47;;;;;;;11.13;9.93;;;12.40;99.90;;;;;;5069500;28;20181;-67
2022/04/22 08:37:13;;;;;;;11.57;9.98;;;12.50;99.90;;;;;;5069304;28;20213;-67
2022/04/22 08:39:39;;;;;;;9.52;8.73;;;12.60;99.90;;;;;;5068217;28;20187;-67
2022/04/22 08:42:05;;;;;;;10.23;9.10;;;12.70;99.90;;;;;;5069417;28;20164;-67
2022/04/22 08:44:31;;;;;;;11.30;8.52;;;12.70;99.90;;;;;;5068064;28;20177;-67
2022/04/22 08:50:02;;;;;;;10.63;8.98;;;12.70;99.90;;;;;;5055928;28;20220;-67
2022/04/22 08:52:32;;;;;;;11.57;9.27;;;12.60;99.90;;;;;;5054785;28;20173;-67
2022/04/22 08:54:59;;;;;;;9.88;8.98;;;12.60;99.90;;;;;;5056019;28;20169;-67
2022/04/22 08:57:25;;;;;;;11.10;9.60;;;12.50;99.90;;;;;;5055790;28;20212;-67
2022/04/22 08:59:50;;;;;;;8.93;8.02;;;12.40;99.90;;;;;;5054624;28;20580;-67
2022/04/22 09:02:19;;;;;;;9.50;8.60;;;12.30;99.90;;;;;;5055837;28;20745;-67
2022/04/22 09:04:46;;;;;;;10.07;7.70;;;12.40;99.90;;;;;;5055861;28;20165;-67
2022/04/22 09:07:18;;;;;;;9.85;8.77;;;12.40;99.90;;;;;;5055737;28;20642;-67
2022/04/22 09:09:49;;;;;;;10.10;8.15;;;12.50;99.90;;;;;;5055736;28;20656;-67
2022/04/22 09:12:24;;;;;;;8.32;7.45;;;12.50;99.90;;;;;;5055748;28;20161;-67
2022/04/22 09:14:52;;;;;;;10.73;9.00;;;12.50;99.90;;;;;;5055573;28;20222;-67
2022/04/22 09:17:22;;;;;;;8.70;7.88;;;12.50;99.90;;;;;;5055712;28;20197;-67
2022/04/22 09:19:47;;;;;;;8.68;7.88;;;12.60;99.90;;;;;;5055519;28;20252;-67
2022/04/22 09:22:21;;;;;;;8.98;7.47;;;12.60;99.90;;;;;;5055521;28;20244;-67
2022/04/22 09:24:47;;;;;;;9.48;8.57;;;12.70;99.90;;;;;;5054163;28;20639;-67
2022/04/22 09:27:13;;;;;;;10.02;7.90;;;12.90;99.90;;;;;;5055394;28;20626;-67
2022/04/22 09:29:55;;;;;;;9.07;7.95;;;13.10;99.90;;;;;;5055386;28;20253;-67
2022/04/22 09:32:32;;;;;;;8.10;7.30;;;13.30;99.90;;;;;;5055327;28;20257;-67
2022/04/22 09:35:09;;;;;;;7.90;7.20;;;13.30;99.90;;;;;;5055170;28;20257;-67
2022/04/22 09:43:33;;;;;;;8.25;7.43;;;13.30;99.90;;;;;;5055355;28;20172;-68
2022/04/22 09:45:59;;;;;;;7.80;7.10;;;13.50;99.90;;;;;;5055048;28;20628;-68
2022/04/22 09:48:25;;;;;;;7.72;7.13;;;13.50;99.90;;;;;;5055008;28;20190;-68
2022/04/22 09:50:56;;;;;;;11.40;7.03;;;13.50;99.90;;;;;;5054979;28;20169;-68
2022/04/22 09:53:33;;;;;;;8.10;6.72;;;13.50;99.90;;;;;;5054907;28;20255;-68
2022/04/22 09:56:08;;;;;;;7.25;6.70;;;13.40;99.90;;;;;;5053477;28;20176;-68
2022/04/22 09:58:34;;;;;;;7.60;6.75;;;13.40;99.90;;;;;;5054839;28;20160;-68
2022/04/22 10:01:03;;;;;;;7.57;6.88;;;13.30;99.90;;;;;;5053801;28;20170;-68
2022/04/22 10:03:32;;;;;;;7.20;6.60;;;13.20;99.90;;;;;;5054656;28;20503;-68
2022/04/22 10:05:59;;;;;;;7.85;7.15;;;13.20;99.90;;;;;;5054629;28;20255;-68
2022/04/22 10:08:28;;;;;;;8.15;7.35;;;13.30;99.90;;;;;;5054578;28;20248;-68
2022/04/22 10:10:57;;;;;;;8.60;7.53;;;13.30;99.90;;;;;;5054468;28;20169;-68
2022/04/22 10:13:26;;;;;;;7.97;7.20;;;13.30;99.90;;;;;;5053222;28;20211;-68
2022/04/22 10:15:52;;;;;;;7.68;7.05;;;13.40;99.90;;;;;;5054374;28;20218;-68
2022/04/22 10:18:20;;;;;;;7.07;6.45;;;13.40;99.90;;;;;;5054352;28;20169;-68
2022/04/22 10:20:47;;;;;;;7.72;6.82;;;13.30;99.90;;;;;;5054306;28;20211;-68
2022/04/22 10:23:13;;;;;;;7.43;6.57;;;13.30;99.90;;;;;;5053013;28;20179;-68
2022/04/22 10:25:39;;;;;;;7.22;6.53;;;13.30;99.90;;;;;;5054281;28;20161;-68
2022/04/22 10:28:08;;;;;;;7.05;6.45;;;13.30;99.90;;;;;;5054195;28;20215;-68
2022/04/22 10:30:34;;;;;;;6.90;6.30;;;13.30;99.90;;;;;;5054110;28;20169;-68
2022/04/22 10:33:00;;;;;;;8.25;6.70;;;13.40;99.90;;;;;;5054131;28;20234;-68
2022/04/22 10:35:26;;;;;;;7.75;6.28;;;13.60;99.90;;;;;;5054037;28;20276;-68
2022/04/22 10:37:52;;;;;;;10.20;7.05;;;13.60;99.90;;;;;;5052427;28;20307;-68
2022/04/22 10:40:23;;;;;;;7.75;6.50;;;13.70;99.90;;;;;;5054022;28;20173;-68
2022/04/22 10:42:51;;;;;;;7.75;6.93;;;13.70;99.90;;;;;;5053942;28;20165;-68
2022/04/22 10:48:19;;;;;;;7.05;6.35;;;13.90;99.90;;;;;;5053901;28;20172;-68
2022/04/22 10:50:59;;;;;;;8.30;7.53;;;13.90;99.90;;;;;;5053769;28;20172;-68
2022/04/22 10:53:39;;;;;;;7.43;6.82;;;14.00;99.90;;;;;;5052488;28;20172;-68
2022/04/22 10:56:26;;;;;;;7.00;6.43;;;14.10;99.90;;;;;;5053667;28;20192;-68
2022/04/22 10:59:14;;;;;;;9.50;6.88;;;14.20;99.90;;;;;;5053624;28;20169;-68
2022/04/22 11:01:40;;;;;;;6.90;6.35;;;14.30;99.90;;;;;;5053602;28;20161;-68
2022/04/22 11:04:18;;;;;;;7.25;6.65;;;14.40;99.90;;;;;;5053579;28;20161;-68
2022/04/22 11:06:43;;;;;;;6.30;5.80;;;14.60;99.90;;;;;;5053588;28;20630;-68
2022/04/22 11:09:09;;;;;;;6.35;5.85;;;14.70;99.90;;;;;;5053442;28;20169;-68
2022/04/22 11:11:41;;;;;;;10.48;5.60;;;14.90;99.90;;;;;;5053250;28;20256;-68
2022/04/22 11:14:21;;;;;;;7.00;6.35;;;15.20;99.90;;;;;;5053427;28;20646;-68
2022/04/22 11:16:47;;;;;;;6.95;6.25;;;15.30;99.90;;;;;;5053292;28;20188;-68
2022/04/22 11:19:18;;;;;;;7.53;6.15;;;15.40;99.90;;;;;;5053344;28;20184;-68
2022/04/22 11:21:45;;;;;;;6.55;6.05;;;15.30;99.90;;;;;;5053331;28;20169;-68
2022/04/22 11:24:15;;;;;;;6.53;6.13;;;15.30;99.90;;;;;;5053303;28;20172;-68
2022/04/22 11:26:45;;;;;;;8.13;7.43;;;15.30;99.90;;;;;;5053314;28;20169;-68
2022/04/22 11:29:13;;;;;;;6.93;6.28;;;15.30;99.90;;;;;;5053273;28;20641;-68
2022/04/22 11:31:39;;;;;;;6.95;6.25;;;15.40;99.90;;;;;;5053272;28;20200;-68
2022/04/22 11:34:14;;;;;;;12.20;6.53;;;15.50;99.90;;;;;;5053160;28;20173;-68
2022/04/22 11:36:47;;;;;;;7.82;7.03;;;15.70;99.90;;;;;;5052911;28;20215;-68
2022/04/22 11:39:20;;;;;;;6.65;6.25;;;15.80;99.90;;;;;;5053231;28;20169;-68
2022/04/22 11:41:57;;;;;;;6.07;5.65;;;15.80;99.90;;;;;;5053111;28;20539;-68
2022/04/22 11:44:24;;;;;;;6.47;6.00;;;15.70;99.90;;;;;;5053084;28;20165;-68
2022/04/22 11:46:54;;;;;;;6.85;6.25;;;15.70;99.90;;;;;;5053096;28;20255;-68
2022/04/22 11:49:20;;;;;;;6.35;5.93;;;15.90;99.90;;;;;;5053076;28;20523;-68
2022/04/22 11:51:52;;;;;;;6.03;5.63;;;16.00;99.90;;;;;;5053069;28;20169;-68
2022/04/22 11:54:22;;;;;;;6.63;6.15;;;16.00;99.90;;;;;;5051826;28;20181;-68
2022/04/22 11:56:48;;;;;;;8.35;6.35;;;16.10;99.90;;;;;;5053407;28;20239;-68
2022/04/22 11:59:14;;;;;;;6.85;6.22;;;16.20;99.90;;;;;;5052926;28;20172;-68
2022/04/22 12:10:01;;;;;;;6.80;6.20;;;16.30;99.90;;;;;;5053179;28;20586;-68
2022/04/22 12:12:29;;;;;;;7.22;6.63;;;16.30;99.90;;;;;;5052912;28;20176;-68
2022/04/22 12:15:01;;;;;;;6.93;6.40;;;16.50;99.90;;;;;;5052856;28;20165;-68
2022/04/22 12:17:27;;;;;;;6.95;6.45;;;16.60;99.90;;;;;;5052749;28;20195;-68
2022/04/22 12:19:53;;;;;;;6.70;6.15;;;16.60;99.90;;;;;;5051471;28;20223;-68
2022/04/22 12:22:20;;;;;;;5.72;5.32;;;16.60;99.90;;;;;;5052807;28;20240;-68
2022/04/22 12:25:10;;;;;;;5.90;5.50;;;16.50;99.90;;;;;;5056255;28;20172;-68
2022/04/22 12:27:37;;;;;;;6.95;6.35;;;16.30;99.90;;;;;;5056525;28;20256;-68
2022/04/22 12:30:06;;;;;;;8.68;7.05;;;16.30;99.90;;;;;;5056404;28;20172;-68
2022/04/22 12:32:32;;;;;;;7.75;6.55;;;16.30;99.90;;;;;;5056377;28;20177;-68
2022/04/22 12:35:18;;;;;;;7.25;6.63;;;16.20;99.90;;;;;;5055061;28;20264;-68
2022/04/22 12:37:52;;;;;;;7.55;6.90;;;16.10;99.90;;;;;;5056107;28;20713;-68
2022/04/22 12:40:19;;;;;;;8.40;6.75;;;15.90;99.90;;;;;;5056291;28;20175;-68
2022/04/22 12:42:49;;;;;;;7.40;6.72;;;15.90;99.90;;;;;;5056118;28;20226;-68
2022/04/22 12:54:07;;;;;;;8.15;6.90;;;15.80;99.90;;;;;;5056013;28;20263;-68
2022/04/22 12:56:34;;;;;;;7.88;7.05;;;15.90;99.90;;;;;;5055817;28;20288;-68
2022/04/22 12:59:00;;;;;;;8.10;7.00;;;16.00;99.90;;;;;;5055955;28;20573;-68
2022/04/22 13:01:28;;;;;;;7.45;6.65;;;16.10;99.90;;;;;;5055812;28;20169;-68
2022/04/22 13:03:55;;;;;;;7.28;6.60;;;16.10;99.90;;;;;;5055856;28;20165;-68
2022/04/22 13:06:43;;;;;;;7.28;6.68;;;16.30;99.90;;;;;;5055795;28;20536;-68
2022/04/22 13:09:13;;;;;;;7.10;6.43;;;16.60;99.90;;;;;;5054478;28;20713;-68
2022/04/22 13:11:40;;;;;;;6.45;5.93;;;17.00;99.90;;;;;;5055691;28;20214;-68
2022/04/22 13:14:06;;;;;;;7.63;6.88;;;17.00;99.90;;;;;;5055582;28;20173;-68
2022/04/22 13:16:33;;;;;;;8.20;5.90;;;16.90;99.90;;;;;;5055593;28;20200;-68
2022/04/22 13:19:00;;;;;;;6.80;6.30;;;16.70;99.90;;;;;;5055477;28;20231;-68
2022/04/22 13:21:26;;;;;;;7.60;6.38;;;16.50;99.90;;;;;;5055522;28;20223;-68
2022/04/22 13:23:52;;;;;;;6.93;6.15;;;16.60;99.90;;;;;;5055436;28;20176;-68
2022/04/22 13:26:18;;;;;;;6.60;6.00;;;16.60;99.90;;;;;;5055391;28;20169;-68
2022/04/22 13:28:44;;;;;;;6.15;5.75;;;16.90;99.90;;;;;;5055295;28;20177;-68
2022/04/22 13:31:09;;;;;;;6.03;5.53;;;17.10;99.90;;;;;;5055303;28;20222;-68
2022/04/22 13:33:35;;;;;;;6.25;5.70;;;17.10;99.90;;;;;;5055114;28;20523;-68
2022/04/22 13:36:07;;;;;;;7.13;6.60;;;16.90;99.90;;;;;;5054959;28;20236;-68
2022/04/22 13:38:34;;;;;;;7.22;6.63;;;16.90;99.90;;;;;;5055256;28;20210;-68
2022/04/22 13:41:01;;;;;;;7.78;6.70;;;17.00;99.90;;;;;;5055095;28;20161;-68
2022/04/22 13:43:30;;;;;;;7.60;6.85;;;17.00;99.90;;;;;;5055086;28;20176;-68
2022/04/22 13:54:11;;;;;;;8.00;6.30;;;17.40;99.90;;;;;;5054990;28;20223;-68
2022/04/22 13:56:37;;;;;;;7.63;5.85;;;17.60;99.90;;;;;;5053530;28;20560;-68
2022/04/22 13:59:03;;;;;;;6.55;6.05;;;17.70;99.90;;;;;;5054792;28;20172;-68
2022/04/22 14:01:28;;;;;;;6.72;6.18;;;17.90;99.90;;;;;;5054782;28;20168;-68
2022/04/22 14:03:54;;;;;;;7.10;6.40;;;18.10;99.90;;;;;;5053457;28;20180;-68
2022/04/22 14:06:19;;;;;;;5.80;5.43;;;18.10;99.90;;;;;;5054631;28;20225;-68
2022/04/22 14:08:45;;;;;;;7.32;6.53;;;18.10;99.90;;;;;;5053338;28;20633;-68
2022/04/22 14:11:10;;;;;;;6.45;5.95;;;18.10;99.90;;;;;;5054554;28;20173;-68
2022/04/22 14:13:36;;;;;;;10.80;5.47;;;18.20;99.90;;;;;;5054532;28;20610;-68
2022/04/22 14:16:03;;;;;;;6.60;6.07;;;18.30;99.90;;;;;;5053106;28;20253;-68
2022/04/22 14:18:31;;;;;;;7.07;6.47;;;18.40;99.90;;;;;;5054341;28;20165;-68
2022/04/22 14:21:00;;;;;;;6.05;5.65;;;18.50;99.90;;;;;;5054356;28;20177;-68
2022/04/22 14:23:26;;;;;;;8.48;6.55;;;18.80;99.90;;;;;;5054327;28;20255;-68
2022/04/22 14:25:56;;;;;;;7.55;6.80;;;18.90;99.90;;;;;;5054277;28;20204;-68
2022/04/22 14:28:24;;;;;;;6.43;6.03;;;18.80;99.90;;;;;;5054294;28;20171;-68
2022/04/22 14:30:51;;;;;;;6.82;6.32;;;18.90;99.90;;;;;;5054175;28;20529;-67
2022/04/22 14:33:16;;;;;;;7.03;6.47;;;19.20;99.90;;;;;;5054131;28;20576;-67
2022/04/22 14:35:42;;;;;;;7.85;7.22;;;19.40;99.90;;;;;;5053864;28;20276;-67
2022/04/22 14:38:08;;;;;;;7.82;7.32;;;19.50;99.90;;;;;;5053809;28;20291;-67
2022/04/22 14:40:33;;;;;;;7.47;6.93;;;19.40;99.90;;;;;;5054445;28;20169;-67
2022/04/22 14:42:59;;;;;;;9.10;7.20;;;19.50;99.90;;;;;;5053124;28;20226;-67
2022/04/22 14:45:26;;;;;;;7.68;6.93;;;19.50;99.90;;;;;;5053811;28;20176;-67
2022/04/22 14:47:53;;;;;;;9.32;8.35;;;19.70;99.90;;;;;;5053876;28;20251;-67
2022/04/22 14:50:23;;;;;;;9.38;8.20;;;19.70;99.90;;;;;;5053016;28;20179;-67
2022/04/22 14:52:49;;;;;;;9.52;8.70;;;19.70;99.90;;;;;;5054222;28;20610;-67
2022/04/22 14:55:17;;;;;;;13.38;9.55;;;19.60;99.90;;;;;;5054150;28;20200;-67
2022/04/22 14:57:43;;;;;;;12.75;8.45;;;19.60;99.90;;;;;;5053918;28;20199;-67
2022/04/22 15:00:09;;;;;;;9.43;8.68;;;19.70;99.90;;;;;;5052936;28;20503;-67
2022/04/22 15:02:36;;;;;;;9.75;8.98;;;19.80;99.90;;;;;;5053744;28;20633;-65
2022/04/22 15:05:02;;;;;;;8.43;7.75;;;20.10;99.90;;;;;;5053988;28;20160;-67
2022/04/22 15:07:31;;;;;;;9.68;8.77;;;20.20;99.90;;;;;;5052723;28;20271;-67
2022/04/22 15:09:58;;;;;;;14.32;9.10;;;20.40;99.90;;;;;;5053683;28;20176;-67
2022/04/22 15:12:24;;;;;;;9.43;8.63;;;20.60;99.90;;;;;;5054016;28;20519;-67
2022/04/22 15:14:50;;;;;;;9.15;8.35;;;20.60;99.90;;;;;;5053622;28;20251;-67
2022/04/22 15:24:09;;;;;;;8.80;8.05;;;20.40;99.90;;;;;;5053531;28;20561;-67
2022/04/22 15:25:31;;;;;;;10.07;9.18;;;20.30;99.90;;;;;;5053794;28;20230;-67
2022/04/22 15:27:57;;;;;;;9.27;8.48;;;20.10;99.90;;;;;;5053771;28;20520;-67
2022/04/22 15:30:58;;;;;;;9.32;8.63;;;20.00;99.90;;;;;;5053537;28;20200;-67
2022/04/22 15:33:23;;;;;;;10.23;9.18;;;19.70;99.90;;;;;;5052556;28;20641;-67
2022/04/22 15:35:49;;;;;;;10.15;9.15;;;19.60;99.90;;;;;;5053147;28;20233;-67
2022/04/22 15:38:14;;;;;;;14.15;8.77;;;19.70;99.90;;;;;;5052234;28;20251;-67
2022/04/22 15:40:40;;;;;;;9.85;9.05;;;19.60;99.90;;;;;;5053556;28;20168;-65
2022/04/22 15:43:05;;;;;;;9.98;9.07;;;19.70;99.90;;;;;;5053296;28;20194;-65
2022/04/22 15:45:31;;;;;;;9.30;8.50;;;19.70;99.90;;;;;;5053407;28;20180;-65
2022/04/22 15:47:56;;;;;;;9.90;9.07;;;19.70;99.90;;;;;;5052389;28;20176;-65
2022/04/22 15:50:22;;;;;;;9.80;8.70;;;19.60;99.90;;;;;;5053204;28;20168;-65
2022/04/22 15:52:48;;;;;;;10.25;9.25;;;19.60;99.90;;;;;;5053547;28;20176;-65
2022/04/22 15:55:14;;;;;;;9.82;9.02;;;19.70;99.90;;;;;;5053450;28;20476;-65
2022/04/22 15:57:42;;;;;;;10.57;9.60;;;19.90;99.90;;;;;;5053349;28;20286;-65
2022/04/22 16:00:08;;;;;;;11.18;9.80;;;19.90;99.90;;;;;;5057441;28;20171;-67
2022/04/22 16:02:35;;;;;;;11.10;9.10;;;19.80;99.90;;;;;;5057310;28;20525;-67
2022/04/22 16:05:00;;;;;;;10.38;9.57;;;19.70;99.90;;;;;;5057258;28;20244;-65
2022/04/22 16:07:26;;;;;;;10.88;9.55;;;19.70;99.90;;;;;;5057165;28;20255;-65
2022/04/22 16:09:52;;;;;;;10.73;9.88;;;19.70;99.90;;;;;;5057261;28;20194;-65
2022/04/22 16:15:17;;;;;;;9.23;8.50;;;19.70;99.90;;;;;;5057064;28;20183;-65
2022/04/22 16:17:48;;;;;;;9.88;9.05;;;19.60;99.90;;;;;;5055785;28;20208;-65
2022/04/22 16:20:15;;;;;;;10.30;9.40;;;19.50;99.90;;;;;;5055797;28;20199;-65
2022/04/22 16:22:41;;;;;;;10.55;9.65;;;19.30;99.90;;;;;;5055756;28;20503;-67
2022/04/22 16:25:08;;;;;;;12.60;10.23;;;19.20;99.90;;;;;;5056846;28;20180;-65
2022/04/22 16:27:35;;;;;;;10.25;9.35;;;19.10;99.90;;;;;;5056881;28;20176;-65
2022/04/22 16:30:02;;;;;;;10.13;9.23;;;19.20;99.90;;;;;;5056823;28;20173;-66
2022/04/22 16:32:27;;;;;;;10.23;9.18;;;19.20;99.90;;;;;;5056715;28;20192;-65
2022/04/22 16:34:53;;;;;;;9.77;9.02;;;19.40;99.90;;;;;;5056870;28;20192;-65
2022/04/22 16:37:19;;;;;;;11.35;9.65;;;19.30;99.90;;;;;;5056247;28;20212;-65
2022/04/22 16:39:44;;;;;;;10.68;9.15;;;19.00;99.90;;;;;;5056466;28;20199;-65
2022/04/22 16:42:10;;;;;;;10.88;9.88;;;18.70;99.90;;;;;;5056579;28;20215;-65
2022/04/22 16:44:36;;;;;;;11.27;10.05;;;18.50;99.90;;;;;;5056554;28;20189;-65
2022/04/22 16:47:04;;;;;;;12.57;11.25;;;18.20;99.90;;;;;;5056429;28;20614;-65
2022/04/22 16:49:29;;;;;;;10.95;9.95;;;17.90;99.90;;;;;;5056388;28;20194;-65
2022/04/22 16:51:55;;;;;;;10.75;9.77;;;17.70;99.90;;;;;;5056448;28;20264;-65
2022/04/22 16:54:21;;;;;;;11.65;10.55;;;17.50;99.90;;;;;;5056443;28;20169;-65
2022/04/22 16:56:47;;;;;;;10.55;9.55;;;17.20;99.90;;;;;;5056154;28;20660;-67
2022/04/22 16:59:12;;;;;;;10.57;9.63;;;17.00;99.90;;;;;;5056300;28;20177;-67
2022/04/22 17:01:38;;;;;;;13.20;10.70;;;16.80;99.90;;;;;;5056408;28;20169;-67
2022/04/22 17:04:04;;;;;;;11.88;10.77;;;16.60;99.90;;;;;;5056188;28;20165;-67
2022/04/22 17:06:29;;;;;;;11.20;10.15;;;16.40;99.90;;;;;;5056018;28;20704;-67
2022/04/22 17:08:56;;;;;;;11.40;10.20;;;16.20;99.90;;;;;;5055662;28;20173;-67
2022/04/22 17:11:21;;;;;;;11.63;10.40;;;16.00;99.90;;;;;;5055854;28;20524;-67
2022/04/22 17:13:51;;;;;;;13.90;11.07;;;15.90;99.90;;;;;;5055794;28;20177;-68
2022/04/22 17:24:31;;;;;;;13.05;10.65;;;16.50;99.90;;;;;;5055667;28;20188;-68
2022/04/22 17:26:56;;;;;;;11.23;10.07;;;16.60;99.90;;;;;;5055529;28;20605;-68
2022/04/22 17:29:24;;;;;;;11.20;9.85;;;16.50;99.90;;;;;;5055482;28;20181;-67
2022/04/22 17:31:51;;;;;;;11.38;10.27;;;16.50;99.90;;;;;;5055449;28;20169;-68
2022/04/22 17:34:17;;;;;;;10.35;9.35;;;16.60;99.90;;;;;;5055600;28;20165;-68
2022/04/22 17:36:43;;;;;;;11.23;10.23;;;16.50;99.90;;;;;;5054945;28;20299;-68
2022/04/22 17:39:08;;;;;;;10.65;9.65;;;16.40;99.90;;;;;;5055267;28;20168;-68
2022/04/22 17:41:34;;;;;;;10.55;9.63;;;16.40;99.90;;;;;;5055318;28;20168;-68
2022/04/22 17:44:01;;;;;;;9.85;8.88;;;16.40;99.90;;;;;;5055254;28;20563;-68
2022/04/22 17:46:26;;;;;;;13.50;9.48;;;16.40;99.90;;;;;;5055223;28;20168;-67
2022/04/22 17:48:52;;;;;;;11.10;9.82;;;16.40;99.90;;;;;;5055181;28;20220;-68
2022/04/22 17:51:18;;;;;;;9.73;8.90;;;16.30;99.90;;;;;;5055168;28;20597;-68
2022/04/22 17:53:43;;;;;;;12.85;10.02;;;16.20;99.90;;;;;;5055081;28;20181;-68
2022/04/22 17:56:10;;;;;;;10.10;9.07;;;16.10;99.90;;;;;;5055083;28;20231;-67
2022/04/22 17:58:36;;;;;;;10.50;9.55;;;15.80;99.90;;;;;;5053751;28;20176;-68
2022/04/22 18:01:03;;;;;;;9.88;8.82;;;15.60;99.90;;;;;;5055137;28;20169;-68
2022/04/22 18:03:31;;;;;;;11.77;9.52;;;15.50;99.90;;;;;;5054776;28;20202;-68
2022/04/22 18:05:57;;;;;;;10.05;9.15;;;15.40;99.90;;;;;;5054979;28;20169;-68
2022/04/22 18:08:22;;;;;;;10.00;9.00;;;15.10;99.90;;;;;;5054695;28;20256;-68
2022/04/22 18:10:48;;;;;;;10.98;9.43;;;15.10;99.90;;;;;;5054729;28;20182;-68
2022/04/22 18:13:14;;;;;;;10.13;9.10;;;14.90;99.90;;;;;;5054615;28;20378;-68
2022/04/22 18:18:24;;;;;;;8.93;8.13;;;14.70;99.90;;;;;;5054160;28;20688;-68
2022/04/22 18:20:50;;;;;;;9.85;8.63;;;14.60;99.90;;;;;;5053687;28;20173;-68
2022/04/22 18:23:15;;;;;;;11.75;9.68;;;14.50;99.90;;;;;;5054260;28;20172;-68
2022/04/22 18:25:41;;;;;;;10.18;8.98;;;14.40;99.90;;;;;;5054112;28;20248;-68
2022/04/22 18:28:08;;;;;;;8.60;7.95;;;14.30;99.90;;;;;;5054317;28;20208;-68
2022/04/22 18:30:35;;;;;;;9.25;8.38;;;14.10;99.90;;;;;;5054323;28;20177;-67
2022/04/22 18:33:02;;;;;;;11.35;9.32;;;14.00;99.90;;;;;;5054332;28;20223;-68
2022/04/22 18:35:28;;;;;;;10.55;9.63;;;13.90;99.90;;;;;;5053053;28;20192;-68
2022/04/22 18:37:54;;;;;;;11.68;9.30;;;13.80;99.90;;;;;;5054165;28;20714;-68
